createdAt,value
2023-07-24T00:00:35.307Z,3.8
2023-07-24T00:01:35.153Z,3.5
2023-07-24T00:02:35.235Z,3.7
2023-07-24T00:03:35.192Z,3.9
2023-07-24T00:04:35.170Z,3.5
2023-07-24T00:05:35.145Z,4.0
2023-07-24T00:06:35.137Z,3.5
2023-07-24T00:07:35.101Z,3.5
2023-07-24T00:08:35.092Z,3.9
2023-07-24T00:09:35.124Z,3.3
2023-07-24T00:10:35.122Z,4.0
2023-07-24T00:11:35.292Z,3.6
2023-07-24T00:12:35.122Z,3.6
2023-07-24T00:13:35.102Z,4.0
2023-07-24T00:14:35.139Z,4.4
2023-07-24T00:15:35.123Z,4.2
2023-07-24T00:16:35.189Z,4.3
2023-07-24T00:17:35.250Z,3.8
2023-07-24T00:18:35.143Z,4.1
2023-07-24T00:19:35.140Z,3.9
2023-07-24T00:20:35.075Z,3.7
2023-07-24T00:21:35.216Z,4.2
2023-07-24T00:22:35.212Z,4.2
2023-07-24T00:23:35.183Z,3.8
2023-07-24T00:24:35.193Z,3.9
2023-07-24T00:25:35.107Z,3.6
2023-07-24T00:26:35.144Z,4.2
2023-07-24T00:27:35.086Z,4.2
2023-07-24T00:28:35.075Z,4.2
2023-07-24T00:29:35.147Z,3.3
2023-07-24T00:30:35.128Z,4.0
2023-07-24T00:31:35.149Z,3.9
2023-07-24T00:32:35.102Z,3.9
2023-07-24T00:33:35.194Z,4.0
2023-07-24T00:34:35.087Z,4.7
2023-07-24T00:35:35.104Z,4.2
2023-07-24T00:36:35.085Z,4.4
2023-07-24T00:37:35.108Z,4.1
2023-07-24T00:38:35.079Z,4.4
2023-07-24T00:39:35.057Z,4.3
2023-07-24T00:40:35.181Z,4.0
2023-07-24T00:41:35.094Z,4.3
2023-07-24T00:42:35.096Z,4.1
2023-07-24T00:43:35.157Z,3.8
2023-07-24T00:44:35.206Z,3.8
2023-07-24T00:45:35.138Z,4.2
2023-07-24T00:46:35.127Z,4.3
2023-07-24T00:47:35.115Z,3.9
2023-07-24T00:48:35.148Z,4.1
2023-07-24T00:49:35.103Z,4.2
2023-07-24T00:50:35.241Z,4.0
2023-07-24T00:51:35.117Z,3.7
2023-07-24T00:52:35.053Z,3.9
2023-07-24T00:53:35.075Z,4.5
2023-07-24T00:54:35.144Z,4.5
2023-07-24T00:55:35.409Z,3.7
2023-07-24T00:56:35.055Z,4.4
2023-07-24T00:57:35.032Z,4.0
2023-07-24T00:58:35.127Z,3.7
2023-07-24T00:59:35.126Z,3.7
2023-07-24T01:00:35.158Z,4.1
2023-07-24T01:01:35.188Z,4.3
2023-07-24T01:02:35.088Z,4.0
2023-07-24T01:03:35.104Z,4.0
2023-07-24T01:04:35.113Z,4.2
2023-07-24T01:05:35.097Z,4.1
2023-07-24T01:06:35.217Z,4.4
2023-07-24T01:07:35.113Z,3.9
2023-07-24T01:08:35.094Z,4.1
2023-07-24T01:09:35.104Z,4.4
2023-07-24T01:10:35.008Z,4.6
2023-07-24T01:11:35.131Z,4.0
2023-07-24T01:12:35.055Z,4.5
2023-07-24T01:13:35.111Z,4.2
2023-07-24T01:14:35.053Z,3.7
2023-07-24T01:15:35.071Z,3.8
2023-07-24T01:16:35.094Z,4.1
2023-07-24T01:17:35.068Z,4.0
2023-07-24T01:18:35.110Z,3.8
2023-07-24T01:19:35.029Z,3.6
2023-07-24T01:20:35.071Z,4.8
2023-07-24T01:21:35.195Z,4.1
2023-07-24T01:22:35.007Z,4.3
2023-07-24T01:23:35.119Z,4.1
2023-07-24T01:24:35.035Z,4.4
2023-07-24T01:25:35.005Z,4.1
2023-07-24T01:26:35.162Z,3.9
2023-07-24T01:27:35.037Z,4.7
2023-07-24T01:28:35.045Z,4.1
2023-07-24T01:29:35.081Z,4.3
2023-07-24T01:30:35.064Z,4.4
2023-07-24T01:31:35.076Z,3.8
2023-07-24T01:32:35.143Z,4.6
2023-07-24T01:33:35.030Z,4.7
2023-07-24T01:34:35.032Z,4.8
2023-07-24T01:35:35.029Z,4.5
2023-07-24T01:36:35.056Z,4.4
2023-07-24T01:37:35.027Z,4.7
2023-07-24T01:38:35.036Z,4.4
2023-07-24T01:39:35.014Z,3.9
2023-07-24T01:40:35.023Z,4.6
2023-07-24T01:41:35.061Z,4.3
2023-07-24T01:42:35.009Z,3.8
2023-07-24T01:43:35.022Z,4.9
2023-07-24T01:44:34.997Z,4.3
2023-07-24T01:45:35.024Z,4.9
2023-07-24T01:46:35.098Z,4.8
2023-07-24T01:47:35.172Z,5.0
2023-07-24T01:48:35.037Z,5.5
2023-07-24T01:49:34.989Z,5.1
2023-07-24T01:50:35.181Z,4.6
2023-07-24T01:51:35.003Z,5.0
2023-07-24T01:52:35.052Z,4.7
2023-07-24T01:53:35.002Z,6.2
2023-07-24T01:54:34.995Z,5.2
2023-07-24T01:55:34.968Z,5.4
2023-07-24T01:56:34.976Z,4.4
2023-07-24T01:57:35.015Z,5.0
2023-07-24T01:58:34.999Z,4.6
2023-07-24T01:59:34.983Z,4.8
2023-07-24T02:00:34.973Z,5.2
2023-07-24T02:01:35.282Z,4.6
2023-07-24T02:02:35.126Z,5.5
2023-07-24T02:03:35.102Z,5.2
2023-07-24T02:04:34.992Z,5.6
2023-07-24T02:05:34.986Z,5.2
2023-07-24T02:06:35.017Z,5.1
2023-07-24T02:07:34.972Z,5.4
2023-07-24T02:08:34.982Z,5.7
2023-07-24T02:09:34.965Z,5.5
2023-07-24T02:10:35.006Z,5.4
2023-07-24T02:11:34.982Z,5.1
2023-07-24T02:12:35.141Z,5.9
2023-07-24T02:13:35.058Z,5.5
2023-07-24T02:14:34.938Z,5.5
2023-07-24T02:15:34.979Z,4.8
2023-07-24T02:16:35.072Z,5.6
2023-07-24T02:17:35.004Z,5.5
2023-07-24T02:18:34.961Z,5.7
2023-07-24T02:19:34.961Z,4.9
2023-07-24T02:20:34.968Z,5.8
2023-07-24T02:21:34.996Z,5.4
2023-07-24T02:22:35.007Z,6.2
2023-07-24T02:23:34.981Z,5.5
2023-07-24T02:24:35.013Z,5.0
2023-07-24T02:25:34.943Z,5.1
2023-07-24T02:26:34.959Z,5.1
2023-07-24T02:27:35.014Z,5.3
2023-07-24T02:28:34.970Z,4.8
2023-07-24T02:29:34.965Z,5.5
2023-07-24T02:30:34.941Z,5.1
2023-07-24T02:31:35.047Z,5.3
2023-07-24T02:32:35.031Z,5.4
2023-07-24T02:33:34.949Z,5.4
2023-07-24T02:34:35.051Z,4.8
2023-07-24T02:35:34.941Z,5.8
2023-07-24T02:36:35.046Z,5.4
2023-07-24T02:37:34.957Z,4.9
2023-07-24T02:38:34.935Z,5.1
2023-07-24T02:39:34.967Z,5.2
2023-07-24T02:40:34.944Z,5.1
2023-07-24T02:41:34.934Z,5.6
2023-07-24T02:42:34.921Z,5.3
2023-07-24T02:43:34.932Z,4.9
2023-07-24T02:44:34.982Z,4.9
2023-07-24T02:45:34.970Z,4.8
2023-07-24T02:46:34.922Z,4.5
2023-07-24T02:47:34.939Z,5.1
2023-07-24T02:48:34.958Z,5.1
2023-07-24T02:49:34.963Z,5.2
2023-07-24T02:50:34.961Z,5.4
2023-07-24T02:51:34.934Z,5.6
2023-07-24T02:52:34.963Z,5.4
2023-07-24T02:53:34.913Z,4.7
2023-07-24T02:54:35.061Z,4.9
2023-07-24T02:55:34.946Z,5.2
2023-07-24T02:56:35.122Z,5.1
2023-07-24T02:57:34.929Z,4.5
2023-07-24T02:58:34.939Z,4.7
2023-07-24T02:59:34.937Z,4.7
2023-07-24T03:00:34.890Z,5.1
2023-07-24T03:01:35.041Z,4.5
2023-07-24T03:02:34.982Z,5.0
2023-07-24T03:03:35.025Z,4.8
2023-07-24T03:04:34.913Z,5.4
2023-07-24T03:05:34.996Z,5.0
2023-07-24T03:06:34.968Z,5.2
2023-07-24T03:07:35.020Z,5.2
2023-07-24T03:08:34.928Z,5.2
2023-07-24T03:09:34.918Z,5.0
2023-07-24T03:10:34.872Z,4.7
2023-07-24T03:11:34.983Z,4.5
2023-07-24T03:12:34.850Z,5.1
2023-07-24T03:13:34.853Z,4.3
2023-07-24T03:14:34.900Z,5.1
2023-07-24T03:15:34.945Z,4.1
2023-07-24T03:16:34.875Z,4.6
2023-07-24T03:17:34.872Z,5.1
2023-07-24T03:18:35.102Z,5.1
2023-07-24T03:19:34.891Z,4.8
2023-07-24T03:20:34.978Z,5.0
2023-07-24T03:21:34.857Z,5.1
2023-07-24T03:22:34.893Z,4.5
2023-07-24T03:23:34.905Z,4.7
2023-07-24T03:24:34.876Z,5.5
2023-07-24T03:25:34.920Z,5.1
2023-07-24T03:26:34.879Z,4.8
2023-07-24T03:27:34.861Z,5.1
2023-07-24T03:28:34.878Z,5.3
2023-07-24T03:29:34.881Z,4.5
2023-07-24T03:30:35.033Z,5.2
2023-07-24T03:31:34.950Z,4.8
2023-07-24T03:32:34.906Z,5.1
2023-07-24T03:33:34.847Z,5.0
2023-07-24T03:34:34.877Z,4.9
2023-07-24T03:35:34.875Z,4.5
2023-07-24T03:36:34.858Z,5.2
2023-07-24T03:37:34.854Z,5.1
2023-07-24T03:38:34.866Z,5.3
2023-07-24T03:39:34.888Z,4.6
2023-07-24T03:40:34.884Z,4.7
2023-07-24T03:41:35.022Z,4.5
2023-07-24T03:42:34.887Z,4.3
2023-07-24T03:43:34.944Z,4.8
2023-07-24T03:44:34.836Z,4.6
2023-07-24T03:45:34.875Z,5.3
2023-07-24T03:46:34.876Z,4.8
2023-07-24T03:47:34.881Z,4.7
2023-07-24T03:48:34.844Z,4.7
2023-07-24T03:49:34.882Z,4.7
2023-07-24T03:50:34.844Z,4.7
2023-07-24T03:51:34.812Z,4.8
2023-07-24T03:52:35.038Z,5.2
2023-07-24T03:53:34.886Z,5.1
2023-07-24T03:54:34.842Z,5.7
2023-07-24T03:55:34.915Z,4.8
2023-07-24T03:56:34.807Z,5.2
2023-07-24T03:57:34.842Z,4.4
2023-07-24T03:58:34.863Z,4.7
2023-07-24T03:59:34.839Z,5.0
2023-07-24T04:00:34.897Z,4.6
2023-07-24T04:01:34.851Z,4.7
2023-07-24T04:02:34.859Z,5.0
2023-07-24T04:03:35.082Z,4.9
2023-07-24T04:04:34.806Z,4.5
2023-07-24T04:05:34.807Z,4.5
2023-07-24T04:06:34.803Z,5.3
2023-07-24T04:07:34.847Z,4.9
2023-07-24T04:08:34.856Z,5.0
2023-07-24T04:09:34.855Z,4.9
2023-07-24T04:10:34.787Z,4.6
2023-07-24T04:11:34.818Z,5.3
2023-07-24T04:12:34.992Z,4.9
2023-07-24T04:13:34.902Z,4.8
2023-07-24T04:14:35.315Z,4.7
2023-07-24T04:15:34.949Z,5.2
2023-07-24T04:16:35.153Z,5.7
2023-07-24T04:17:34.831Z,5.4
2023-07-24T04:18:34.810Z,5.0
2023-07-24T04:19:34.836Z,5.1
2023-07-24T04:20:34.814Z,5.0
2023-07-24T04:21:34.784Z,5.9
2023-07-24T04:22:34.813Z,5.2
2023-07-24T04:23:34.795Z,5.1
2023-07-24T04:24:34.859Z,5.3
2023-07-24T04:25:34.896Z,6.2
2023-07-24T04:26:36.903Z,5.4
2023-07-24T04:27:34.833Z,5.5
2023-07-24T04:28:34.817Z,5.9
2023-07-24T04:29:34.817Z,5.8
2023-07-24T04:30:34.809Z,5.9
2023-07-24T04:31:34.796Z,6.3
2023-07-24T04:32:34.920Z,5.6
2023-07-24T04:33:34.797Z,5.1
2023-07-24T04:34:34.788Z,5.4
2023-07-24T04:35:34.785Z,4.6
2023-07-24T04:36:34.777Z,5.6
2023-07-24T04:37:34.795Z,5.1
2023-07-24T04:38:34.825Z,5.7
2023-07-24T04:39:34.786Z,6.1
2023-07-24T04:40:34.777Z,5.7
2023-07-24T04:41:34.746Z,5.2
2023-07-24T04:42:34.774Z,5.6
2023-07-24T04:43:34.798Z,6.2
2023-07-24T04:44:34.793Z,5.6
2023-07-24T04:45:34.769Z,5.3
2023-07-24T04:46:35.178Z,5.7
2023-07-24T04:47:34.923Z,5.4
2023-07-24T04:48:34.811Z,5.8
2023-07-24T04:49:34.731Z,6.0
2023-07-24T04:50:34.749Z,5.3
2023-07-24T04:51:36.679Z,5.6
2023-07-24T04:52:34.782Z,5.3
2023-07-24T04:53:34.777Z,5.2
2023-07-24T04:54:34.733Z,5.9
2023-07-24T04:55:34.765Z,5.7
2023-07-24T04:56:34.763Z,5.8
2023-07-24T04:57:34.757Z,5.0
2023-07-24T04:58:34.921Z,5.2
2023-07-24T04:59:34.787Z,5.5
2023-07-24T05:00:34.736Z,6.0
2023-07-24T05:01:34.771Z,5.1
2023-07-24T05:02:34.747Z,5.3
2023-07-24T05:03:34.771Z,5.5
2023-07-24T05:04:34.841Z,5.7
2023-07-24T05:05:34.774Z,5.7
2023-07-24T05:06:34.841Z,5.5
2023-07-24T05:07:34.735Z,5.3
2023-07-24T05:08:34.706Z,4.9
2023-07-24T05:09:34.864Z,5.2
2023-07-24T05:10:34.761Z,5.9
2023-07-24T05:11:34.820Z,5.3
2023-07-24T05:12:34.740Z,5.5
2023-07-24T05:13:34.721Z,5.6
2023-07-24T05:14:34.709Z,5.9
2023-07-24T05:15:34.746Z,5.9
2023-07-24T05:16:34.981Z,5.5
2023-07-24T05:17:34.794Z,5.9
2023-07-24T05:18:34.732Z,5.1
2023-07-24T05:19:34.747Z,5.2
2023-07-24T05:20:34.911Z,5.8
2023-07-24T05:21:34.816Z,5.6
2023-07-24T05:22:34.765Z,5.6
2023-07-24T05:23:34.701Z,5.0
2023-07-24T05:24:34.753Z,5.2
2023-07-24T05:25:34.696Z,5.4
2023-07-24T05:26:34.724Z,5.5
2023-07-24T05:27:34.754Z,5.2
2023-07-24T05:28:34.717Z,5.7
2023-07-24T05:29:34.711Z,5.0
2023-07-24T05:30:34.707Z,5.5
2023-07-24T05:31:34.927Z,5.4
2023-07-24T05:32:34.698Z,4.8
2023-07-24T05:33:34.773Z,5.5
2023-07-24T05:34:34.710Z,5.0
2023-07-24T05:35:35.469Z,6.0
2023-07-24T05:36:34.731Z,5.1
2023-07-24T05:37:34.789Z,5.2
2023-07-24T05:38:34.741Z,5.2
2023-07-24T05:39:34.681Z,5.6
2023-07-24T05:40:34.859Z,5.3
2023-07-24T05:41:34.686Z,5.1
2023-07-24T05:42:34.868Z,5.6
2023-07-24T05:43:34.745Z,5.1
2023-07-24T05:44:34.678Z,5.8
2023-07-24T05:45:34.690Z,5.1
2023-07-24T05:46:34.792Z,5.4
2023-07-24T05:47:34.694Z,6.4
2023-07-24T05:48:34.907Z,5.8
2023-07-24T05:49:34.690Z,5.1
2023-07-24T05:50:34.720Z,5.7
2023-07-24T05:51:34.708Z,5.7
2023-07-24T05:52:34.686Z,5.9
2023-07-24T05:53:34.812Z,4.7
2023-07-24T05:54:34.735Z,5.7
2023-07-24T05:55:34.800Z,5.4
2023-07-24T05:56:34.665Z,5.1
2023-07-24T05:57:34.668Z,5.7
2023-07-24T05:58:34.751Z,5.3
2023-07-24T05:59:34.732Z,5.0
2023-07-24T06:00:34.698Z,5.2
2023-07-24T06:01:34.772Z,4.8
2023-07-24T06:02:34.729Z,5.6
2023-07-24T06:03:34.795Z,5.4
2023-07-24T06:04:35.001Z,5.0
2023-07-24T06:05:34.883Z,5.3
2023-07-24T06:06:34.676Z,4.7
2023-07-24T06:07:34.710Z,4.6
2023-07-24T06:08:34.670Z,5.4
2023-07-24T06:09:34.745Z,5.1
2023-07-24T06:10:34.718Z,4.9
2023-07-24T06:11:34.655Z,4.9
2023-07-24T06:12:34.675Z,4.9
2023-07-24T06:13:34.638Z,5.4
2023-07-24T06:14:34.685Z,5.2
2023-07-24T06:15:34.753Z,5.7
2023-07-24T06:16:34.781Z,5.0
2023-07-24T06:17:34.652Z,5.3
2023-07-24T06:18:34.647Z,5.2
2023-07-24T06:19:34.666Z,5.1
2023-07-24T06:20:34.688Z,5.0
2023-07-24T06:21:34.765Z,5.7
2023-07-24T06:22:34.656Z,5.4
2023-07-24T06:23:34.657Z,4.9
2023-07-24T06:24:34.734Z,5.5
2023-07-24T06:25:34.645Z,5.1
2023-07-24T06:26:34.811Z,4.9
2023-07-24T06:27:34.639Z,5.1
2023-07-24T06:28:34.704Z,5.0
2023-07-24T06:29:34.629Z,5.3
2023-07-24T06:30:34.628Z,5.3
2023-07-24T06:31:34.708Z,5.8
2023-07-24T06:32:34.665Z,5.0
2023-07-24T06:33:34.819Z,5.2
2023-07-24T06:34:34.640Z,4.9
2023-07-24T06:35:34.646Z,4.8
2023-07-24T06:36:35.310Z,4.9
2023-07-24T06:37:34.779Z,5.0
2023-07-24T06:38:34.649Z,4.3
2023-07-24T06:39:34.614Z,5.5
2023-07-24T06:40:34.679Z,5.4
2023-07-24T06:41:34.647Z,4.9
2023-07-24T06:42:34.613Z,4.8
2023-07-24T06:43:34.617Z,5.5
2023-07-24T06:44:34.626Z,4.4
2023-07-24T06:45:34.701Z,4.6
2023-07-24T06:46:34.688Z,4.2
2023-07-24T06:47:34.619Z,4.4
2023-07-24T06:48:34.824Z,5.6
2023-07-24T06:49:34.640Z,4.8
2023-07-24T06:50:34.693Z,5.0
2023-07-24T06:51:34.588Z,5.1
2023-07-24T06:52:34.642Z,5.4
2023-07-24T06:53:34.687Z,5.0
2023-07-24T06:54:34.608Z,4.6
2023-07-24T06:55:34.695Z,4.5
2023-07-24T06:56:34.761Z,4.8
2023-07-24T06:57:34.604Z,4.3
2023-07-24T06:58:34.626Z,4.4
2023-07-24T06:59:34.782Z,4.3
2023-07-24T07:00:34.579Z,5.3
2023-07-24T07:01:34.713Z,4.2
2023-07-24T07:02:34.698Z,5.0
2023-07-24T07:03:34.645Z,4.3
2023-07-24T07:04:34.634Z,4.6
2023-07-24T07:05:34.627Z,4.2
2023-07-24T07:06:35.871Z,4.6
2023-07-24T07:07:34.655Z,4.2
2023-07-24T07:08:34.601Z,4.4
2023-07-24T07:09:34.573Z,4.4
2023-07-24T07:10:34.811Z,4.8
2023-07-24T07:11:34.615Z,4.7
2023-07-24T07:12:34.641Z,4.0
2023-07-24T07:13:34.605Z,4.3
2023-07-24T07:14:34.591Z,4.6
2023-07-24T07:15:34.587Z,4.9
2023-07-24T07:16:34.564Z,4.6
2023-07-24T07:17:34.643Z,4.6
2023-07-24T07:18:34.635Z,6.7
2023-07-24T07:19:34.621Z,4.4
2023-07-24T07:20:35.132Z,4.5
2023-07-24T07:21:34.766Z,4.7
2023-07-24T07:22:35.455Z,4.2
2023-07-24T07:23:34.841Z,4.9
2023-07-24T07:24:34.861Z,4.3
2023-07-24T07:25:34.678Z,4.5
2023-07-24T07:26:35.864Z,4.8
2023-07-24T07:27:34.701Z,4.7
2023-07-24T07:28:34.930Z,4.2
2023-07-24T07:29:34.617Z,4.6
2023-07-24T07:30:34.890Z,4.4
2023-07-24T07:31:34.754Z,4.6
2023-07-24T07:32:34.788Z,4.7
2023-07-24T07:33:34.757Z,4.3
2023-07-24T07:34:34.599Z,4.1
2023-07-24T07:35:34.625Z,4.4
2023-07-24T07:36:35.092Z,4.6
2023-07-24T07:37:34.566Z,4.6
2023-07-24T07:38:34.619Z,4.8
2023-07-24T07:39:34.582Z,5.1
2023-07-24T07:40:35.054Z,4.6
2023-07-24T07:41:34.537Z,4.5
2023-07-24T07:42:34.675Z,4.6
2023-07-24T07:43:34.941Z,4.4
2023-07-24T07:44:35.268Z,4.4
2023-07-24T07:45:34.900Z,4.7
2023-07-24T07:46:35.431Z,4.8
2023-07-24T07:47:34.898Z,5.2
2023-07-24T07:48:34.911Z,4.7
2023-07-24T07:49:34.969Z,3.8
2023-07-24T07:50:34.937Z,4.6
2023-07-24T07:51:35.179Z,5.2
2023-07-24T07:52:34.700Z,4.8
2023-07-24T07:53:34.652Z,4.2
2023-07-24T07:54:34.834Z,4.2
2023-07-24T07:55:34.541Z,4.4
2023-07-24T07:56:34.872Z,4.5
2023-07-24T07:57:34.599Z,4.8
2023-07-24T07:58:34.931Z,4.9
2023-07-24T07:59:34.566Z,5.3
2023-07-24T08:00:35.321Z,5.2
2023-07-24T08:01:34.551Z,5.2
2023-07-24T08:02:34.777Z,5.3
2023-07-24T08:03:34.605Z,4.6
2023-07-24T08:04:35.236Z,4.8
2023-07-24T08:05:34.671Z,4.5
2023-07-24T08:06:34.741Z,4.5
2023-07-24T08:07:34.693Z,4.4
2023-07-24T08:08:34.894Z,4.9
2023-07-24T08:09:34.581Z,5.2
2023-07-24T08:10:35.437Z,4.0
2023-07-24T08:11:34.609Z,5.0
2023-07-24T08:12:34.738Z,5.0
2023-07-24T08:13:35.220Z,4.4
2023-07-24T08:14:34.593Z,4.7
2023-07-24T08:15:34.889Z,5.1
2023-07-24T08:16:36.011Z,5.0
2023-07-24T08:17:34.639Z,5.0
2023-07-24T08:18:34.872Z,5.1
2023-07-24T08:19:34.631Z,4.6
2023-07-24T08:20:35.179Z,4.6
2023-07-24T08:21:34.508Z,4.7
2023-07-24T08:22:35.045Z,4.5
2023-07-24T08:23:35.236Z,4.6
2023-07-24T08:24:36.466Z,4.4
2023-07-24T08:25:35.937Z,4.9
2023-07-24T08:26:34.512Z,4.1
2023-07-24T08:27:45.335Z,4.5
2023-07-24T08:28:34.555Z,4.9
2023-07-24T08:29:34.522Z,5.3
2023-07-24T08:30:34.532Z,4.6
2023-07-24T08:31:34.634Z,5.0
2023-07-24T08:32:34.613Z,4.9
2023-07-24T08:33:34.559Z,5.0
2023-07-24T08:34:34.578Z,5.1
2023-07-24T08:35:34.809Z,4.7
2023-07-24T08:36:34.625Z,5.0
2023-07-24T08:37:35.201Z,4.9
2023-07-24T08:38:34.883Z,4.8
2023-07-24T08:39:34.900Z,4.7
2023-07-24T08:40:34.495Z,5.4
2023-07-24T08:41:34.617Z,4.8
2023-07-24T08:42:34.607Z,5.2
2023-07-24T08:43:34.782Z,4.7
2023-07-24T08:44:34.563Z,5.2
2023-07-24T08:45:34.850Z,4.8
2023-07-24T08:46:34.728Z,5.1
2023-07-24T08:47:34.724Z,4.8
2023-07-24T08:48:34.580Z,5.3
2023-07-24T08:49:34.623Z,5.0
2023-07-24T08:50:34.762Z,5.0
2023-07-24T08:51:34.812Z,4.9
2023-07-24T08:52:37.106Z,5.6
2023-07-24T08:53:35.053Z,5.4
2023-07-24T08:54:34.525Z,5.4
2023-07-24T08:55:35.647Z,5.0
2023-07-24T08:56:34.708Z,5.0
2023-07-24T08:57:36.232Z,5.1
2023-07-24T08:58:34.838Z,6.1
2023-07-24T08:59:36.161Z,4.9
2023-07-24T09:00:34.718Z,5.1
2023-07-24T09:01:35.824Z,5.1
2023-07-24T09:02:34.683Z,5.2
2023-07-24T09:03:35.821Z,5.5
2023-07-24T09:04:34.478Z,5.4
2023-07-24T09:05:34.699Z,5.2
2023-07-24T09:06:34.562Z,4.6
2023-07-24T09:07:34.492Z,4.9
2023-07-24T09:08:34.494Z,5.1
2023-07-24T09:09:35.964Z,4.9
2023-07-24T09:10:34.622Z,5.5
2023-07-24T09:11:35.558Z,5.7
2023-07-24T09:12:34.937Z,5.1
2023-07-24T09:13:34.589Z,6.0
2023-07-24T09:14:34.496Z,5.4
2023-07-24T09:15:35.303Z,5.9
2023-07-24T09:16:35.474Z,5.7
2023-07-24T09:17:34.658Z,5.5
2023-07-24T09:18:34.474Z,5.3
2023-07-24T09:19:34.861Z,5.1
2023-07-24T09:20:34.514Z,5.9
2023-07-24T09:21:34.793Z,5.0
2023-07-24T09:22:34.885Z,5.5
2023-07-24T09:23:34.872Z,5.6
2023-07-24T09:24:34.705Z,5.5
2023-07-24T09:25:35.711Z,5.9
2023-07-24T09:26:34.571Z,6.7
2023-07-24T09:27:35.910Z,5.5
2023-07-24T09:28:34.479Z,6.0
2023-07-24T09:29:34.559Z,6.7
2023-07-24T09:30:34.498Z,5.9
2023-07-24T09:31:34.433Z,5.4
2023-07-24T09:32:34.466Z,4.9
2023-07-24T09:33:34.421Z,4.9
2023-07-24T09:34:34.412Z,5.0
2023-07-24T09:35:35.451Z,5.7
2023-07-24T09:36:34.495Z,5.9
2023-07-24T09:37:34.575Z,5.8
2023-07-24T09:38:34.474Z,5.6
2023-07-24T09:39:35.468Z,5.7
2023-07-24T09:40:34.564Z,5.6
2023-07-24T09:41:34.433Z,5.0
2023-07-24T09:42:34.493Z,5.4
2023-07-24T09:43:39.095Z,5.7
2023-07-24T09:44:34.553Z,5.7
2023-07-24T09:45:36.298Z,5.0
2023-07-24T09:46:45.670Z,5.5
2023-07-24T09:47:55.922Z,5.5
2023-07-24T09:49:34.627Z,6.9
2023-07-24T09:50:34.407Z,5.6
2023-07-24T09:51:34.444Z,5.8
2023-07-24T09:52:34.586Z,5.0
2023-07-24T09:53:34.453Z,5.8
2023-07-24T09:54:34.653Z,5.5
2023-07-24T09:55:34.500Z,5.7
2023-07-24T09:56:47.451Z,6.1
2023-07-24T09:57:34.411Z,5.8
2023-07-24T09:58:34.408Z,5.3
2023-07-24T09:59:34.421Z,5.8
2023-07-24T10:00:34.758Z,5.5
2023-07-24T10:01:34.982Z,6.0
2023-07-24T10:02:34.457Z,5.6
2023-07-24T10:03:34.449Z,6.2
2023-07-24T10:04:34.570Z,6.0
2023-07-24T10:05:34.420Z,5.8
2023-07-24T10:06:35.450Z,6.0
2023-07-24T10:07:34.596Z,6.1
2023-07-24T10:08:34.423Z,5.6
2023-07-24T10:09:34.418Z,6.0
2023-07-24T10:10:34.455Z,4.9
2023-07-24T10:11:34.734Z,6.0
2023-07-24T10:12:34.469Z,6.2
2023-07-24T10:13:35.130Z,6.3
2023-07-24T10:14:34.409Z,6.3
2023-07-24T10:15:34.403Z,6.1
2023-07-24T10:16:34.475Z,6.0
2023-07-24T10:17:34.473Z,5.9
2023-07-24T10:18:34.741Z,6.0
2023-07-24T10:19:34.460Z,6.0
2023-07-24T10:20:34.451Z,5.6
2023-07-24T10:21:34.776Z,5.9
2023-07-24T10:22:34.418Z,5.4
2023-07-24T10:23:34.403Z,5.8
2023-07-24T10:24:41.602Z,5.8
2023-07-24T10:25:34.392Z,5.6
2023-07-24T10:26:34.376Z,6.1
2023-07-24T10:27:34.415Z,5.8
2023-07-24T10:28:34.384Z,6.3
2023-07-24T10:29:34.553Z,5.9
2023-07-24T10:30:34.894Z,6.4
2023-07-24T10:31:34.839Z,6.4
2023-07-24T10:32:34.506Z,5.5
2023-07-24T10:33:34.535Z,6.2
2023-07-24T10:34:34.404Z,5.9
2023-07-24T10:35:34.413Z,5.8
2023-07-24T10:36:34.413Z,6.5
2023-07-24T10:37:34.394Z,6.6
2023-07-24T10:38:35.721Z,6.7
2023-07-24T10:39:34.445Z,6.8
2023-07-24T10:40:35.128Z,5.8
2023-07-24T10:41:34.454Z,7.2
2023-07-24T10:42:35.048Z,6.3
2023-07-24T10:43:34.384Z,6.5
2023-07-24T10:44:34.951Z,6.2
2023-07-24T10:45:34.402Z,6.1
2023-07-24T10:46:34.392Z,6.3
2023-07-24T10:47:34.488Z,5.4
2023-07-24T10:48:34.406Z,6.2
2023-07-24T10:49:34.446Z,6.5
2023-07-24T10:50:34.368Z,6.1
2023-07-24T10:51:34.559Z,6.2
2023-07-24T10:52:34.437Z,5.6
2023-07-24T10:53:34.393Z,5.8
2023-07-24T10:54:34.348Z,5.7
2023-07-24T10:55:34.332Z,6.3
2023-07-24T10:56:34.452Z,5.7
2023-07-24T10:57:34.355Z,6.2
2023-07-24T10:58:34.343Z,6.2
2023-07-24T10:59:34.353Z,6.4
2023-07-24T11:00:34.384Z,6.3
2023-07-24T11:01:35.284Z,6.6
2023-07-24T11:02:35.091Z,6.0
2023-07-24T11:03:34.395Z,6.4
2023-07-24T11:04:34.378Z,6.2
2023-07-24T11:05:34.387Z,6.8
2023-07-24T11:06:34.380Z,7.1
2023-07-24T11:07:34.387Z,6.3
2023-07-24T11:08:34.450Z,6.0
2023-07-24T11:09:34.396Z,6.0
2023-07-24T11:10:34.371Z,7.0
2023-07-24T11:11:34.987Z,6.6
2023-07-24T11:12:34.338Z,6.5
2023-07-24T11:13:34.577Z,6.9
2023-07-24T11:14:34.383Z,6.3
2023-07-24T11:15:34.510Z,6.4
2023-07-24T11:16:34.881Z,6.7
2023-07-24T11:17:34.396Z,6.2
2023-07-24T11:18:44.378Z,5.4
2023-07-24T11:19:34.370Z,5.9
2023-07-24T11:20:34.448Z,6.0
2023-07-24T11:21:34.800Z,6.2
2023-07-24T11:22:34.357Z,6.3
2023-07-24T11:23:34.352Z,7.0
2023-07-24T11:24:34.526Z,6.4
2023-07-24T11:25:34.367Z,6.3
2023-07-24T11:26:34.386Z,6.6
2023-07-24T11:27:34.459Z,6.2
2023-07-24T11:28:34.316Z,6.3
2023-07-24T11:29:34.315Z,6.5
2023-07-24T11:30:34.308Z,6.5
2023-07-24T11:31:34.840Z,5.8
2023-07-24T11:32:34.420Z,6.4
2023-07-24T11:33:34.325Z,6.2
2023-07-24T11:34:34.341Z,6.1
2023-07-24T11:35:35.241Z,6.7
2023-07-24T11:36:34.354Z,7.0
2023-07-24T11:37:34.374Z,7.7
2023-07-24T11:38:34.333Z,6.6
2023-07-24T11:39:34.363Z,6.2
2023-07-24T11:40:34.336Z,6.6
2023-07-24T11:41:34.521Z,6.2
2023-07-24T11:42:34.325Z,6.8
2023-07-24T11:43:34.302Z,6.3
2023-07-24T11:44:34.320Z,7.4
2023-07-24T11:45:34.395Z,6.0
2023-07-24T11:46:34.546Z,6.2
2023-07-24T11:47:34.390Z,6.6
2023-07-24T11:48:34.309Z,7.2
2023-07-24T11:49:34.328Z,6.2
2023-07-24T11:50:34.331Z,6.2
2023-07-24T11:51:35.115Z,6.3
2023-07-24T11:52:35.537Z,6.4
2023-07-24T11:53:34.329Z,6.2
2023-07-24T11:54:34.303Z,6.8
2023-07-24T11:55:34.292Z,6.6
2023-07-24T11:56:34.363Z,7.1
2023-07-24T11:57:35.046Z,7.3
2023-07-24T11:58:34.323Z,7.6
2023-07-24T11:59:34.282Z,6.9
2023-07-24T12:00:36.462Z,5.6
2023-07-24T12:01:34.566Z,6.3
2023-07-24T12:02:34.509Z,6.5
2023-07-24T12:03:34.493Z,6.5
2023-07-24T12:04:34.337Z,6.7
2023-07-24T12:05:34.376Z,6.9
2023-07-24T12:06:34.376Z,6.9
2023-07-24T12:07:34.421Z,7.1
2023-07-24T12:08:34.532Z,6.7
2023-07-24T12:09:34.333Z,6.4
2023-07-24T12:10:34.286Z,6.9
2023-07-24T12:11:34.376Z,6.8
2023-07-24T12:12:34.351Z,7.1
2023-07-24T12:13:34.334Z,6.6
2023-07-24T12:14:34.311Z,6.3
2023-07-24T12:15:34.354Z,6.8
2023-07-24T12:16:34.356Z,7.1
2023-07-24T12:17:34.349Z,6.7
2023-07-24T12:18:34.304Z,7.1
2023-07-24T12:19:34.435Z,6.8
2023-07-24T12:20:34.296Z,6.6
2023-07-24T12:21:34.933Z,6.1
2023-07-24T12:22:34.414Z,6.6
2023-07-24T12:23:34.303Z,6.7
2023-07-24T12:24:34.367Z,6.7
2023-07-24T12:25:34.274Z,7.0
2023-07-24T12:26:34.294Z,6.2
2023-07-24T12:27:34.354Z,7.7
2023-07-24T12:28:34.312Z,6.8
2023-07-24T12:29:34.341Z,7.2
2023-07-24T12:30:34.500Z,6.9
2023-07-24T12:31:34.770Z,6.7
2023-07-24T12:32:34.333Z,7.0
2023-07-24T12:33:34.280Z,6.3
2023-07-24T12:34:34.278Z,6.6
2023-07-24T12:35:34.370Z,6.8
2023-07-24T12:36:34.289Z,6.5
2023-07-24T12:37:34.254Z,5.9
2023-07-24T12:38:34.254Z,7.2
2023-07-24T12:39:34.366Z,6.7
2023-07-24T12:40:34.285Z,6.9
2023-07-24T12:41:34.660Z,6.1
2023-07-24T12:42:34.261Z,6.6
2023-07-24T12:43:34.299Z,6.6
2023-07-24T12:44:34.252Z,6.5
2023-07-24T12:45:34.275Z,6.6
2023-07-24T12:46:34.317Z,6.5
2023-07-24T12:47:34.335Z,6.8
2023-07-24T12:48:34.289Z,6.4
2023-07-24T12:49:34.317Z,6.3
2023-07-24T12:50:34.277Z,6.6
2023-07-24T12:51:34.313Z,6.4
2023-07-24T12:52:34.410Z,6.6
2023-07-24T12:53:40.774Z,6.3
2023-07-24T12:54:39.620Z,6.4
2023-07-24T12:55:34.264Z,6.3
2023-07-24T12:56:34.313Z,6.1
2023-07-24T12:57:34.251Z,5.9
2023-07-24T12:58:34.308Z,6.5
2023-07-24T12:59:34.321Z,6.7
2023-07-24T13:00:34.274Z,6.3
2023-07-24T13:01:34.553Z,6.6
2023-07-24T13:02:34.336Z,6.2
2023-07-24T13:03:34.298Z,6.2
2023-07-24T13:04:34.247Z,6.7
2023-07-24T13:05:34.242Z,6.4
2023-07-24T13:06:34.803Z,6.0
2023-07-24T13:07:34.490Z,6.5
2023-07-24T13:08:35.904Z,6.7
2023-07-24T13:09:34.237Z,6.5
2023-07-24T13:10:34.262Z,7.2
2023-07-24T13:11:34.483Z,6.5
2023-07-24T13:12:34.254Z,6.8
2023-07-24T13:13:34.342Z,6.8
2023-07-24T13:14:35.588Z,6.6
2023-07-24T13:15:34.264Z,7.0
2023-07-24T13:16:34.506Z,6.7
2023-07-24T13:17:34.290Z,6.9
2023-07-24T13:18:34.327Z,6.9
2023-07-24T13:19:34.255Z,6.5
2023-07-24T13:20:34.296Z,6.4
2023-07-24T13:21:34.399Z,7.1
2023-07-24T13:22:35.364Z,6.7
2023-07-24T13:23:34.339Z,6.4
2023-07-24T13:24:34.497Z,6.4
2023-07-24T13:25:34.282Z,7.5
2023-07-24T13:26:34.244Z,7.4
2023-07-24T13:27:34.347Z,7.1
2023-07-24T13:28:34.348Z,6.7
2023-07-24T13:29:34.227Z,7.8
2023-07-24T13:30:34.368Z,7.0
2023-07-24T13:31:34.313Z,6.6
2023-07-24T13:32:34.439Z,7.4
2023-07-24T13:33:34.259Z,7.4
2023-07-24T13:34:34.318Z,6.8
2023-07-24T13:35:34.431Z,7.2
2023-07-24T13:36:34.329Z,7.3
2023-07-24T13:37:34.203Z,6.9
2023-07-24T13:38:34.337Z,7.4
2023-07-24T13:39:34.274Z,6.3
2023-07-24T13:40:34.310Z,7.1
2023-07-24T13:41:34.841Z,7.3
2023-07-24T13:42:34.328Z,7.5
2023-07-24T13:43:34.242Z,6.7
2023-07-24T13:44:34.239Z,7.6
2023-07-24T13:45:34.352Z,6.7
2023-07-24T13:46:34.641Z,7.2
2023-07-24T13:47:34.204Z,6.9